sensor_id;sensor_type;location;lat;lon;timestamp;P1;durP1;ratioP1;P2;durP2;ratioP2
78205;SDS011;67480;48.920;12.880;2023-06-19T00:02:20;6.40;;;5.80;;
78205;SDS011;67480;48.920;12.880;2023-06-19T00:04:45;6.78;;;6.18;;
78205;SDS011;67480;48.920;12.880;2023-06-19T00:07:11;6.85;;;6.15;;
78205;SDS011;67480;48.920;12.880;2023-06-19T00:09:36;6.07;;;5.55;;
78205;SDS011;67480;48.920;12.880;2023-06-19T00:12:01;6.68;;;5.82;;
78205;SDS011;67480;48.920;12.880;2023-06-19T00:14:29;6.30;;;5.70;;
78205;SDS011;67480;48.920;12.880;2023-06-19T00:16:54;7.85;;;6.03;;
78205;SDS011;67480;48.920;12.880;2023-06-19T00:19:20;6.75;;;6.05;;
78205;SDS011;67480;48.920;12.880;2023-06-19T00:21:45;7.07;;;6.03;;
78205;SDS011;67480;48.920;12.880;2023-06-19T00:24:11;6.82;;;5.90;;
78205;SDS011;67480;48.920;12.880;2023-06-19T00:26:36;6.60;;;5.85;;
78205;SDS011;67480;48.920;12.880;2023-06-19T00:29:02;6.43;;;5.82;;
78205;SDS011;67480;48.920;12.880;2023-06-19T00:31:27;6.63;;;5.97;;
78205;SDS011;67480;48.920;12.880;2023-06-19T00:33:54;10.18;;;7.65;;
78205;SDS011;67480;48.920;12.880;2023-06-19T00:36:20;13.55;;;9.80;;
78205;SDS011;67480;48.920;12.880;2023-06-19T00:38:46;7.57;;;6.20;;
78205;SDS011;67480;48.920;12.880;2023-06-19T00:41:13;9.30;;;7.40;;
78205;SDS011;67480;48.920;12.880;2023-06-19T00:43:39;7.32;;;6.30;;
78205;SDS011;67480;48.920;12.880;2023-06-19T00:46:05;6.63;;;5.88;;
78205;SDS011;67480;48.920;12.880;2023-06-19T00:48:31;7.00;;;6.30;;
78205;SDS011;67480;48.920;12.880;2023-06-19T00:50:58;6.80;;;6.20;;
78205;SDS011;67480;48.920;12.880;2023-06-19T00:53:24;6.15;;;5.55;;
78205;SDS011;67480;48.920;12.880;2023-06-19T00:55:50;6.72;;;6.13;;
78205;SDS011;67480;48.920;12.880;2023-06-19T00:58:18;6.80;;;5.63;;
78205;SDS011;67480;48.920;12.880;2023-06-19T01:00:44;6.63;;;5.88;;
78205;SDS011;67480;48.920;12.880;2023-06-19T01:03:10;6.20;;;5.60;;
78205;SDS011;67480;48.920;12.880;2023-06-19T01:05:35;7.70;;;6.10;;
78205;SDS011;67480;48.920;12.880;2023-06-19T01:10:39;7.47;;;6.32;;
78205;SDS011;67480;48.920;12.880;2023-06-19T01:15:47;9.27;;;6.28;;
78205;SDS011;67480;48.920;12.880;2023-06-19T01:18:13;7.10;;;6.32;;
78205;SDS011;67480;48.920;12.880;2023-06-19T01:20:39;6.72;;;6.07;;
78205;SDS011;67480;48.920;12.880;2023-06-19T01:23:08;7.43;;;6.68;;
78205;SDS011;67480;48.920;12.880;2023-06-19T01:25:34;8.20;;;6.85;;
78205;SDS011;67480;48.920;12.880;2023-06-19T01:28:00;7.00;;;6.30;;
78205;SDS011;67480;48.920;12.880;2023-06-19T01:30:27;6.90;;;6.30;;
78205;SDS011;67480;48.920;12.880;2023-06-19T01:33:00;7.65;;;6.57;;
78205;SDS011;67480;48.920;12.880;2023-06-19T01:35:28;8.05;;;6.50;;
78205;SDS011;67480;48.920;12.880;2023-06-19T01:37:54;6.85;;;6.25;;
78205;SDS011;67480;48.920;12.880;2023-06-19T01:40:21;6.93;;;6.22;;
78205;SDS011;67480;48.920;12.880;2023-06-19T01:42:50;7.32;;;6.63;;
78205;SDS011;67480;48.920;12.880;2023-06-19T01:45:18;6.35;;;5.75;;
78205;SDS011;67480;48.920;12.880;2023-06-19T01:47:43;7.85;;;6.35;;
78205;SDS011;67480;48.920;12.880;2023-06-19T01:50:09;6.78;;;6.00;;
78205;SDS011;67480;48.920;12.880;2023-06-19T01:52:36;6.78;;;6.18;;
78205;SDS011;67480;48.920;12.880;2023-06-19T01:55:02;7.03;;;5.78;;
78205;SDS011;67480;48.920;12.880;2023-06-19T01:57:28;8.40;;;7.30;;
78205;SDS011;67480;48.920;12.880;2023-06-19T01:59:53;7.00;;;6.25;;
78205;SDS011;67480;48.920;12.880;2023-06-19T02:02:19;7.75;;;6.90;;
78205;SDS011;67480;48.920;12.880;2023-06-19T02:04:44;7.03;;;6.28;;
78205;SDS011;67480;48.920;12.880;2023-06-19T02:07:09;6.97;;;6.28;;
78205;SDS011;67480;48.920;12.880;2023-06-19T02:09:35;8.02;;;7.22;;
78205;SDS011;67480;48.920;12.880;2023-06-19T02:12:03;7.60;;;6.90;;
78205;SDS011;67480;48.920;12.880;2023-06-19T02:14:28;7.72;;;7.03;;
78205;SDS011;67480;48.920;12.880;2023-06-19T02:16:53;9.50;;;7.15;;
78205;SDS011;67480;48.920;12.880;2023-06-19T02:19:19;7.82;;;7.03;;
78205;SDS011;67480;48.920;12.880;2023-06-19T02:21:44;8.98;;;7.30;;
78205;SDS011;67480;48.920;12.880;2023-06-19T02:24:09;7.28;;;6.53;;
78205;SDS011;67480;48.920;12.880;2023-06-19T02:26:35;14.82;;;7.05;;
78205;SDS011;67480;48.920;12.880;2023-06-19T02:29:00;7.60;;;6.88;;
78205;SDS011;67480;48.920;12.880;2023-06-19T02:31:25;7.40;;;6.70;;
78205;SDS011;67480;48.920;12.880;2023-06-19T02:33:51;7.88;;;7.03;;
78205;SDS011;67480;48.920;12.880;2023-06-19T02:36:16;7.10;;;6.40;;
78205;SDS011;67480;48.920;12.880;2023-06-19T02:38:47;7.82;;;6.57;;
78205;SDS011;67480;48.920;12.880;2023-06-19T02:41:15;7.03;;;6.32;;
78205;SDS011;67480;48.920;12.880;2023-06-19T02:43:42;7.43;;;6.63;;
78205;SDS011;67480;48.920;12.880;2023-06-19T02:46:07;7.22;;;6.47;;
78205;SDS011;67480;48.920;12.880;2023-06-19T02:48:33;7.28;;;6.35;;
78205;SDS011;67480;48.920;12.880;2023-06-19T02:50:58;6.50;;;5.90;;
78205;SDS011;67480;48.920;12.880;2023-06-19T02:53:24;7.10;;;6.40;;
78205;SDS011;67480;48.920;12.880;2023-06-19T02:55:49;9.02;;;6.63;;
78205;SDS011;67480;48.920;12.880;2023-06-19T02:58:15;7.07;;;6.38;;
78205;SDS011;67480;48.920;12.880;2023-06-19T03:00:40;7.30;;;6.60;;
78205;SDS011;67480;48.920;12.880;2023-06-19T03:03:05;6.65;;;6.05;;
78205;SDS011;67480;48.920;12.880;2023-06-19T03:05:31;9.95;;;6.60;;
78205;SDS011;67480;48.920;12.880;2023-06-19T03:07:56;8.20;;;6.75;;
78205;SDS011;67480;48.920;12.880;2023-06-19T03:10:22;6.97;;;6.28;;
78205;SDS011;67480;48.920;12.880;2023-06-19T03:12:47;7.78;;;6.60;;
78205;SDS011;67480;48.920;12.880;2023-06-19T03:15:13;8.32;;;7.25;;
78205;SDS011;67480;48.920;12.880;2023-06-19T03:17:38;13.88;;;11.80;;
78205;SDS011;67480;48.920;12.880;2023-06-19T03:20:04;10.20;;;9.00;;
78205;SDS011;67480;48.920;12.880;2023-06-19T03:22:30;18.15;;;14.93;;
78205;SDS011;67480;48.920;12.880;2023-06-19T03:24:56;8.23;;;6.90;;
78205;SDS011;67480;48.920;12.880;2023-06-19T03:27:21;9.30;;;8.38;;
78205;SDS011;67480;48.920;12.880;2023-06-19T03:29:47;12.50;;;10.68;;
78205;SDS011;67480;48.920;12.880;2023-06-19T03:32:12;16.17;;;13.13;;
78205;SDS011;67480;48.920;12.880;2023-06-19T03:34:38;10.70;;;8.48;;
78205;SDS011;67480;48.920;12.880;2023-06-19T03:37:04;8.05;;;7.25;;
78205;SDS011;67480;48.920;12.880;2023-06-19T03:39:29;9.43;;;7.40;;
78205;SDS011;67480;48.920;12.880;2023-06-19T03:41:55;8.18;;;7.38;;
78205;SDS011;67480;48.920;12.880;2023-06-19T03:44:20;9.02;;;8.07;;
78205;SDS011;67480;48.920;12.880;2023-06-19T03:46:45;8.13;;;7.20;;
78205;SDS011;67480;48.920;12.880;2023-06-19T03:49:12;7.32;;;6.63;;
78205;SDS011;67480;48.920;12.880;2023-06-19T03:51:37;8.85;;;7.75;;
78205;SDS011;67480;48.920;12.880;2023-06-19T03:54:03;7.55;;;6.90;;
78205;SDS011;67480;48.920;12.880;2023-06-19T03:56:28;7.90;;;7.15;;
78205;SDS011;67480;48.920;12.880;2023-06-19T03:58:54;9.07;;;7.43;;
78205;SDS011;67480;48.920;12.880;2023-06-19T04:01:19;12.73;;;11.35;;
78205;SDS011;67480;48.920;12.880;2023-06-19T04:03:44;7.53;;;6.82;;
78205;SDS011;67480;48.920;12.880;2023-06-19T04:06:10;7.53;;;6.82;;
78205;SDS011;67480;48.920;12.880;2023-06-19T04:08:35;8.32;;;6.80;;
78205;SDS011;67480;48.920;12.880;2023-06-19T04:11:01;9.07;;;7.45;;
78205;SDS011;67480;48.920;12.880;2023-06-19T04:13:26;9.18;;;7.82;;
78205;SDS011;67480;48.920;12.880;2023-06-19T04:15:52;7.80;;;7.05;;
78205;SDS011;67480;48.920;12.880;2023-06-19T04:18:17;7.97;;;6.80;;
78205;SDS011;67480;48.920;12.880;2023-06-19T04:20:43;8.32;;;7.45;;
78205;SDS011;67480;48.920;12.880;2023-06-19T04:23:09;9.70;;;7.90;;
78205;SDS011;67480;48.920;12.880;2023-06-19T04:25:34;8.02;;;7.22;;
78205;SDS011;67480;48.920;12.880;2023-06-19T04:28:00;10.88;;;7.65;;
78205;SDS011;67480;48.920;12.880;2023-06-19T04:30:28;7.97;;;6.95;;
78205;SDS011;67480;48.920;12.880;2023-06-19T04:32:54;8.77;;;7.60;;
78205;SDS011;67480;48.920;12.880;2023-06-19T04:35:19;8.25;;;7.45;;
78205;SDS011;67480;48.920;12.880;2023-06-19T04:37:48;7.55;;;6.85;;
78205;SDS011;67480;48.920;12.880;2023-06-19T04:40:14;8.73;;;7.82;;
78205;SDS011;67480;48.920;12.880;2023-06-19T04:42:42;8.18;;;7.30;;
78205;SDS011;67480;48.920;12.880;2023-06-19T04:45:08;8.15;;;7.25;;
78205;SDS011;67480;48.920;12.880;2023-06-19T04:47:37;8.32;;;7.40;;
78205;SDS011;67480;48.920;12.880;2023-06-19T04:50:04;8.73;;;7.78;;
78205;SDS011;67480;48.920;12.880;2023-06-19T04:52:30;8.57;;;7.75;;
78205;SDS011;67480;48.920;12.880;2023-06-19T04:54:58;9.52;;;7.65;;
78205;SDS011;67480;48.920;12.880;2023-06-19T04:57:23;8.77;;;7.88;;
78205;SDS011;67480;48.920;12.880;2023-06-19T04:59:49;9.30;;;8.48;;
78205;SDS011;67480;48.920;12.880;2023-06-19T05:02:14;9.00;;;8.10;;
78205;SDS011;67480;48.920;12.880;2023-06-19T05:04:40;11.18;;;7.68;;
78205;SDS011;67480;48.920;12.880;2023-06-19T05:07:07;9.00;;;7.97;;
78205;SDS011;67480;48.920;12.880;2023-06-19T05:09:33;11.13;;;9.20;;
78205;SDS011;67480;48.920;12.880;2023-06-19T05:11:58;13.63;;;10.40;;
78205;SDS011;67480;48.920;12.880;2023-06-19T05:14:24;11.73;;;9.63;;
78205;SDS011;67480;48.920;12.880;2023-06-19T05:16:49;10.93;;;9.70;;
78205;SDS011;67480;48.920;12.880;2023-06-19T05:19:15;11.32;;;9.52;;
78205;SDS011;67480;48.920;12.880;2023-06-19T05:21:40;9.73;;;8.70;;
78205;SDS011;67480;48.920;12.880;2023-06-19T05:24:06;10.35;;;9.35;;
78205;SDS011;67480;48.920;12.880;2023-06-19T05:26:31;12.00;;;9.80;;
78205;SDS011;67480;48.920;12.880;2023-06-19T05:28:57;11.40;;;9.15;;
78205;SDS011;67480;48.920;12.880;2023-06-19T05:31:23;9.25;;;8.35;;
78205;SDS011;67480;48.920;12.880;2023-06-19T05:33:48;8.95;;;8.13;;
78205;SDS011;67480;48.920;12.880;2023-06-19T05:36:14;9.52;;;8.63;;
78205;SDS011;67480;48.920;12.880;2023-06-19T05:38:39;10.38;;;9.23;;
78205;SDS011;67480;48.920;12.880;2023-06-19T05:41:05;9.45;;;8.55;;
78205;SDS011;67480;48.920;12.880;2023-06-19T05:43:31;10.60;;;9.52;;
78205;SDS011;67480;48.920;12.880;2023-06-19T05:45:57;11.38;;;8.95;;
78205;SDS011;67480;48.920;12.880;2023-06-19T05:48:24;9.77;;;8.05;;
78205;SDS011;67480;48.920;12.880;2023-06-19T05:50:50;9.32;;;8.40;;
78205;SDS011;67480;48.920;12.880;2023-06-19T05:53:16;9.13;;;8.23;;
78205;SDS011;67480;48.920;12.880;2023-06-19T05:55:42;10.00;;;8.93;;
78205;SDS011;67480;48.920;12.880;2023-06-19T05:58:07;9.63;;;8.50;;
78205;SDS011;67480;48.920;12.880;2023-06-19T06:00:33;9.98;;;8.95;;
78205;SDS011;67480;48.920;12.880;2023-06-19T06:02:58;9.35;;;8.20;;
78205;SDS011;67480;48.920;12.880;2023-06-19T06:05:27;8.98;;;8.13;;
78205;SDS011;67480;48.920;12.880;2023-06-19T06:07:53;9.52;;;7.93;;
78205;SDS011;67480;48.920;12.880;2023-06-19T06:10:20;10.07;;;8.70;;
78205;SDS011;67480;48.920;12.880;2023-06-19T06:12:46;8.90;;;8.00;;
78205;SDS011;67480;48.920;12.880;2023-06-19T06:15:12;12.48;;;11.18;;
78205;SDS011;67480;48.920;12.880;2023-06-19T06:17:38;21.67;;;17.90;;
78205;SDS011;67480;48.920;12.880;2023-06-19T06:20:03;13.80;;;12.32;;
78205;SDS011;67480;48.920;12.880;2023-06-19T06:22:37;11.30;;;9.80;;
78205;SDS011;67480;48.920;12.880;2023-06-19T06:25:05;11.18;;;10.18;;
78205;SDS011;67480;48.920;12.880;2023-06-19T06:27:32;12.85;;;10.88;;
78205;SDS011;67480;48.920;12.880;2023-06-19T06:29:58;12.50;;;10.68;;
78205;SDS011;67480;48.920;12.880;2023-06-19T06:32:24;11.95;;;10.75;;
78205;SDS011;67480;48.920;12.880;2023-06-19T06:34:49;11.95;;;10.70;;
78205;SDS011;67480;48.920;12.880;2023-06-19T06:37:14;12.57;;;10.82;;
78205;SDS011;67480;48.920;12.880;2023-06-19T06:39:42;13.60;;;11.18;;
78205;SDS011;67480;48.920;12.880;2023-06-19T06:42:08;14.23;;;12.75;;
78205;SDS011;67480;48.920;12.880;2023-06-19T06:44:33;14.00;;;12.38;;
78205;SDS011;67480;48.920;12.880;2023-06-19T06:46:58;16.20;;;10.82;;
78205;SDS011;67480;48.920;12.880;2023-06-19T06:49:24;12.23;;;10.73;;
78205;SDS011;67480;48.920;12.880;2023-06-19T06:51:49;10.13;;;9.13;;
78205;SDS011;67480;48.920;12.880;2023-06-19T06:54:15;10.70;;;9.70;;
78205;SDS011;67480;48.920;12.880;2023-06-19T06:56:40;14.55;;;12.23;;
78205;SDS011;67480;48.920;12.880;2023-06-19T06:59:06;10.73;;;9.73;;
78205;SDS011;67480;48.920;12.880;2023-06-19T07:01:33;12.32;;;11.15;;
78205;SDS011;67480;48.920;12.880;2023-06-19T07:03:59;12.05;;;9.82;;
78205;SDS011;67480;48.920;12.880;2023-06-19T07:06:24;13.25;;;11.95;;
78205;SDS011;67480;48.920;12.880;2023-06-19T07:08:49;14.98;;;12.95;;
78205;SDS011;67480;48.920;12.880;2023-06-19T07:11:15;8.90;;;8.00;;
78205;SDS011;67480;48.920;12.880;2023-06-19T07:13:40;9.57;;;8.68;;
78205;SDS011;67480;48.920;12.880;2023-06-19T07:16:06;9.75;;;8.75;;
78205;SDS011;67480;48.920;12.880;2023-06-19T07:18:32;10.00;;;9.00;;
78205;SDS011;67480;48.920;12.880;2023-06-19T07:21:00;12.93;;;11.55;;
78205;SDS011;67480;48.920;12.880;2023-06-19T07:23:26;11.13;;;10.05;;
78205;SDS011;67480;48.920;12.880;2023-06-19T07:25:51;12.32;;;10.52;;
78205;SDS011;67480;48.920;12.880;2023-06-19T07:28:16;10.05;;;9.02;;
78205;SDS011;67480;48.920;12.880;2023-06-19T07:30:42;10.73;;;9.65;;
78205;SDS011;67480;48.920;12.880;2023-06-19T07:33:08;8.68;;;7.78;;
78205;SDS011;67480;48.920;12.880;2023-06-19T07:35:33;8.85;;;7.88;;
78205;SDS011;67480;48.920;12.880;2023-06-19T07:37:59;9.75;;;8.80;;
78205;SDS011;67480;48.920;12.880;2023-06-19T07:40:24;9.05;;;8.13;;
78205;SDS011;67480;48.920;12.880;2023-06-19T07:42:49;9.38;;;8.48;;
78205;SDS011;67480;48.920;12.880;2023-06-19T07:45:15;10.50;;;9.50;;
78205;SDS011;67480;48.920;12.880;2023-06-19T07:47:40;10.05;;;9.02;;
78205;SDS011;67480;48.920;12.880;2023-06-19T07:50:06;9.55;;;8.63;;
78205;SDS011;67480;48.920;12.880;2023-06-19T07:52:31;9.32;;;8.43;;
78205;SDS011;67480;48.920;12.880;2023-06-19T07:54:57;9.98;;;9.00;;
78205;SDS011;67480;48.920;12.880;2023-06-19T07:57:23;9.63;;;8.73;;
78205;SDS011;67480;48.920;12.880;2023-06-19T07:59:51;9.80;;;8.70;;
78205;SDS011;67480;48.920;12.880;2023-06-19T08:02:17;10.07;;;9.07;;
78205;SDS011;67480;48.920;12.880;2023-06-19T08:04:43;11.40;;;9.65;;
78205;SDS011;67480;48.920;12.880;2023-06-19T08:07:08;10.93;;;9.93;;
78205;SDS011;67480;48.920;12.880;2023-06-19T08:09:34;10.30;;;9.40;;
78205;SDS011;67480;48.920;12.880;2023-06-19T08:12:00;10.68;;;9.38;;
78205;SDS011;67480;48.920;12.880;2023-06-19T08:14:26;10.68;;;9.52;;
78205;SDS011;67480;48.920;12.880;2023-06-19T08:16:51;10.60;;;9.60;;
78205;SDS011;67480;48.920;12.880;2023-06-19T08:19:16;10.75;;;9.70;;
78205;SDS011;67480;48.920;12.880;2023-06-19T08:21:42;10.18;;;9.27;;
78205;SDS011;67480;48.920;12.880;2023-06-19T08:24:07;35.75;;;28.85;;
78205;SDS011;67480;48.920;12.880;2023-06-19T08:26:32;10.57;;;9.38;;
78205;SDS011;67480;48.920;12.880;2023-06-19T08:28:58;9.98;;;9.07;;
78205;SDS011;67480;48.920;12.880;2023-06-19T08:31:23;10.40;;;9.40;;
78205;SDS011;67480;48.920;12.880;2023-06-19T08:33:53;11.18;;;8.68;;
78205;SDS011;67480;48.920;12.880;2023-06-19T08:36:19;10.70;;;8.93;;
78205;SDS011;67480;48.920;12.880;2023-06-19T08:38:45;10.55;;;8.95;;
78205;SDS011;67480;48.920;12.880;2023-06-19T08:41:14;9.40;;;8.50;;
78205;SDS011;67480;48.920;12.880;2023-06-19T08:43:40;9.57;;;8.63;;
78205;SDS011;67480;48.920;12.880;2023-06-19T08:48:36;12.50;;;9.32;;
78205;SDS011;67480;48.920;12.880;2023-06-19T08:51:02;9.68;;;8.82;;
78205;SDS011;67480;48.920;12.880;2023-06-19T08:53:29;9.77;;;8.88;;
78205;SDS011;67480;48.920;12.880;2023-06-19T08:55:56;10.13;;;9.13;;
78205;SDS011;67480;48.920;12.880;2023-06-19T08:58:25;10.13;;;9.13;;
78205;SDS011;67480;48.920;12.880;2023-06-19T09:00:51;9.70;;;8.90;;
78205;SDS011;67480;48.920;12.880;2023-06-19T09:03:19;9.23;;;8.43;;
78205;SDS011;67480;48.920;12.880;2023-06-19T09:05:46;9.50;;;8.57;;
78205;SDS011;67480;48.920;12.880;2023-06-19T09:08:16;9.55;;;8.55;;
78205;SDS011;67480;48.920;12.880;2023-06-19T09:10:42;10.63;;;8.40;;
78205;SDS011;67480;48.920;12.880;2023-06-19T09:13:08;9.05;;;8.00;;
78205;SDS011;67480;48.920;12.880;2023-06-19T09:15:36;9.27;;;8.48;;
78205;SDS011;67480;48.920;12.880;2023-06-19T09:18:03;14.23;;;8.77;;
78205;SDS011;67480;48.920;12.880;2023-06-19T09:20:31;10.43;;;9.43;;
78205;SDS011;67480;48.920;12.880;2023-06-19T09:22:57;11.27;;;9.30;;
78205;SDS011;67480;48.920;12.880;2023-06-19T09:25:24;10.18;;;9.15;;
78205;SDS011;67480;48.920;12.880;2023-06-19T09:27:51;10.63;;;9.45;;
78205;SDS011;67480;48.920;12.880;2023-06-19T09:30:17;14.13;;;8.65;;
78205;SDS011;67480;48.920;12.880;2023-06-19T09:32:43;9.73;;;8.82;;
78205;SDS011;67480;48.920;12.880;2023-06-19T09:35:08;9.68;;;8.55;;
78205;SDS011;67480;48.920;12.880;2023-06-19T09:37:34;9.50;;;8.65;;
78205;SDS011;67480;48.920;12.880;2023-06-19T09:40:03;9.90;;;8.93;;
78205;SDS011;67480;48.920;12.880;2023-06-19T09:42:39;9.93;;;8.93;;
78205;SDS011;67480;48.920;12.880;2023-06-19T09:45:11;10.43;;;9.40;;
78205;SDS011;67480;48.920;12.880;2023-06-19T09:47:44;9.93;;;9.02;;
78205;SDS011;67480;48.920;12.880;2023-06-19T09:50:14;9.85;;;8.95;;
78205;SDS011;67480;48.920;12.880;2023-06-19T09:52:41;11.65;;;9.38;;
78205;SDS011;67480;48.920;12.880;2023-06-19T09:55:07;10.05;;;9.05;;
78205;SDS011;67480;48.920;12.880;2023-06-19T09:57:35;9.02;;;8.23;;
78205;SDS011;67480;48.920;12.880;2023-06-19T10:00:03;9.43;;;8.63;;
78205;SDS011;67480;48.920;12.880;2023-06-19T10:02:41;10.55;;;9.45;;
78205;SDS011;67480;48.920;12.880;2023-06-19T10:05:08;9.25;;;8.35;;
78205;SDS011;67480;48.920;12.880;2023-06-19T10:07:38;9.38;;;8.57;;
78205;SDS011;67480;48.920;12.880;2023-06-19T10:10:08;9.10;;;8.30;;
78205;SDS011;67480;48.920;12.880;2023-06-19T10:12:43;9.65;;;8.65;;
78205;SDS011;67480;48.920;12.880;2023-06-19T10:15:19;9.10;;;8.18;;
78205;SDS011;67480;48.920;12.880;2023-06-19T10:23:07;10.90;;;9.07;;
78205;SDS011;67480;48.920;12.880;2023-06-19T10:25:34;9.57;;;8.68;;
78205;SDS011;67480;48.920;12.880;2023-06-19T10:28:02;14.27;;;9.10;;
78205;SDS011;67480;48.920;12.880;2023-06-19T10:30:32;10.10;;;8.73;;
78205;SDS011;67480;48.920;12.880;2023-06-19T10:32:58;9.25;;;8.35;;
78205;SDS011;67480;48.920;12.880;2023-06-19T10:35:24;9.95;;;8.35;;
78205;SDS011;67480;48.920;12.880;2023-06-19T10:37:50;9.13;;;7.82;;
78205;SDS011;67480;48.920;12.880;2023-06-19T10:40:24;12.27;;;8.68;;
78205;SDS011;67480;48.920;12.880;2023-06-19T10:42:50;10.80;;;8.27;;
78205;SDS011;67480;48.920;12.880;2023-06-19T10:45:16;11.35;;;8.57;;
78205;SDS011;67480;48.920;12.880;2023-06-19T10:47:42;9.48;;;8.60;;
78205;SDS011;67480;48.920;12.880;2023-06-19T10:50:15;9.25;;;8.35;;
78205;SDS011;67480;48.920;12.880;2023-06-19T10:52:46;9.75;;;8.75;;
78205;SDS011;67480;48.920;12.880;2023-06-19T10:55:14;9.98;;;8.98;;
78205;SDS011;67480;48.920;12.880;2023-06-19T10:57:43;9.52;;;8.63;;
78205;SDS011;67480;48.920;12.880;2023-06-19T11:00:10;9.75;;;8.57;;
78205;SDS011;67480;48.920;12.880;2023-06-19T11:02:42;10.55;;;9.38;;
78205;SDS011;67480;48.920;12.880;2023-06-19T11:05:11;10.00;;;8.98;;
78205;SDS011;67480;48.920;12.880;2023-06-19T11:07:37;12.70;;;9.05;;
78205;SDS011;67480;48.920;12.880;2023-06-19T11:10:08;11.75;;;9.77;;
78205;SDS011;67480;48.920;12.880;2023-06-19T11:12:50;10.40;;;9.50;;
78205;SDS011;67480;48.920;12.880;2023-06-19T11:15:31;10.68;;;9.57;;
78205;SDS011;67480;48.920;12.880;2023-06-19T11:17:57;10.23;;;9.20;;
78205;SDS011;67480;48.920;12.880;2023-06-19T11:20:24;9.65;;;8.65;;
78205;SDS011;67480;48.920;12.880;2023-06-19T11:22:54;11.15;;;9.48;;
78205;SDS011;67480;48.920;12.880;2023-06-19T11:25:34;10.00;;;8.98;;
78205;SDS011;67480;48.920;12.880;2023-06-19T11:28:00;9.50;;;8.68;;
78205;SDS011;67480;48.920;12.880;2023-06-19T11:30:32;8.40;;;7.60;;
78205;SDS011;67480;48.920;12.880;2023-06-19T11:32:58;9.10;;;8.20;;
78205;SDS011;67480;48.920;12.880;2023-06-19T11:35:23;9.48;;;8.68;;
78205;SDS011;67480;48.920;12.880;2023-06-19T11:37:59;9.60;;;8.02;;
78205;SDS011;67480;48.920;12.880;2023-06-19T11:40:24;10.20;;;9.40;;
78205;SDS011;67480;48.920;12.880;2023-06-19T11:42:53;9.57;;;8.45;;
78205;SDS011;67480;48.920;12.880;2023-06-19T11:45:19;9.30;;;8.50;;
78205;SDS011;67480;48.920;12.880;2023-06-19T11:47:45;9.32;;;8.50;;
78205;SDS011;67480;48.920;12.880;2023-06-19T11:50:13;9.50;;;8.50;;
78205;SDS011;67480;48.920;12.880;2023-06-19T11:52:44;9.90;;;8.63;;
78205;SDS011;67480;48.920;12.880;2023-06-19T11:55:13;9.88;;;8.80;;
78205;SDS011;67480;48.920;12.880;2023-06-19T11:57:41;10.38;;;8.40;;
78205;SDS011;67480;48.920;12.880;2023-06-19T12:00:15;10.30;;;9.40;;
78205;SDS011;67480;48.920;12.880;2023-06-19T12:02:43;15.00;;;8.77;;
78205;SDS011;67480;48.920;12.880;2023-06-19T12:05:09;13.45;;;9.23;;
78205;SDS011;67480;48.920;12.880;2023-06-19T12:07:38;10.35;;;9.35;;
78205;SDS011;67480;48.920;12.880;2023-06-19T12:10:04;9.45;;;8.55;;
78205;SDS011;67480;48.920;12.880;2023-06-19T12:12:34;10.48;;;9.27;;
78205;SDS011;67480;48.920;12.880;2023-06-19T12:15:00;11.98;;;10.77;;
78205;SDS011;67480;48.920;12.880;2023-06-19T12:17:26;13.93;;;10.98;;
78205;SDS011;67480;48.920;12.880;2023-06-19T12:19:51;11.10;;;9.90;;
78205;SDS011;67480;48.920;12.880;2023-06-19T12:22:18;11.40;;;10.07;;
78205;SDS011;67480;48.920;12.880;2023-06-19T12:24:43;11.48;;;10.38;;
78205;SDS011;67480;48.920;12.880;2023-06-19T12:27:09;11.35;;;10.25;;
78205;SDS011;67480;48.920;12.880;2023-06-19T12:29:34;11.98;;;10.77;;
78205;SDS011;67480;48.920;12.880;2023-06-19T12:32:01;10.65;;;9.73;;
78205;SDS011;67480;48.920;12.880;2023-06-19T12:34:27;10.90;;;9.90;;
78205;SDS011;67480;48.920;12.880;2023-06-19T12:36:53;10.88;;;9.88;;
78205;SDS011;67480;48.920;12.880;2023-06-19T12:39:19;10.98;;;10.07;;
78205;SDS011;67480;48.920;12.880;2023-06-19T12:41:45;11.07;;;9.98;;
78205;SDS011;67480;48.920;12.880;2023-06-19T12:44:11;11.10;;;9.95;;
78205;SDS011;67480;48.920;12.880;2023-06-19T12:46:36;11.75;;;10.10;;
78205;SDS011;67480;48.920;12.880;2023-06-19T12:49:09;11.20;;;10.10;;
78205;SDS011;67480;48.920;12.880;2023-06-19T12:51:35;10.65;;;9.43;;
78205;SDS011;67480;48.920;12.880;2023-06-19T12:54:00;10.88;;;9.80;;
78205;SDS011;67480;48.920;12.880;2023-06-19T12:56:25;11.40;;;10.30;;
78205;SDS011;67480;48.920;12.880;2023-06-19T12:58:51;11.77;;;10.68;;
78205;SDS011;67480;48.920;12.880;2023-06-19T13:01:16;11.60;;;10.40;;
78205;SDS011;67480;48.920;12.880;2023-06-19T13:03:42;11.55;;;10.40;;
78205;SDS011;67480;48.920;12.880;2023-06-19T13:06:07;11.52;;;10.38;;
78205;SDS011;67480;48.920;12.880;2023-06-19T13:08:33;12.25;;;11.15;;
78205;SDS011;67480;48.920;12.880;2023-06-19T13:10:59;11.52;;;10.52;;
78205;SDS011;67480;48.920;12.880;2023-06-19T13:13:24;12.27;;;11.10;;
78205;SDS011;67480;48.920;12.880;2023-06-19T13:15:49;11.60;;;10.48;;
78205;SDS011;67480;48.920;12.880;2023-06-19T13:18:15;12.48;;;11.25;;
78205;SDS011;67480;48.920;12.880;2023-06-19T13:20:41;13.00;;;11.80;;
78205;SDS011;67480;48.920;12.880;2023-06-19T13:23:11;12.77;;;11.68;;
78205;SDS011;67480;48.920;12.880;2023-06-19T13:25:37;14.68;;;13.32;;
78205;SDS011;67480;48.920;12.880;2023-06-19T13:28:03;16.17;;;11.35;;
78205;SDS011;67480;48.920;12.880;2023-06-19T13:30:28;12.07;;;10.98;;
78205;SDS011;67480;48.920;12.880;2023-06-19T13:32:54;12.77;;;11.48;;
78205;SDS011;67480;48.920;12.880;2023-06-19T13:35:19;12.50;;;11.40;;
78205;SDS011;67480;48.920;12.880;2023-06-19T13:37:46;12.90;;;11.75;;
78205;SDS011;67480;48.920;12.880;2023-06-19T13:40:12;12.32;;;10.93;;
78205;SDS011;67480;48.920;12.880;2023-06-19T13:42:41;12.85;;;11.63;;
78205;SDS011;67480;48.920;12.880;2023-06-19T13:45:06;13.07;;;11.68;;
78205;SDS011;67480;48.920;12.880;2023-06-19T13:47:32;15.23;;;11.27;;
78205;SDS011;67480;48.920;12.880;2023-06-19T13:49:58;12.77;;;11.65;;
78205;SDS011;67480;48.920;12.880;2023-06-19T13:52:23;12.52;;;11.30;;
78205;SDS011;67480;48.920;12.880;2023-06-19T13:54:49;13.93;;;12.60;;
78205;SDS011;67480;48.920;12.880;2023-06-19T13:57:14;14.00;;;12.70;;
78205;SDS011;67480;48.920;12.880;2023-06-19T13:59:40;13.60;;;12.30;;
78205;SDS011;67480;48.920;12.880;2023-06-19T14:02:06;15.00;;;13.45;;
78205;SDS011;67480;48.920;12.880;2023-06-19T14:04:31;14.90;;;13.50;;
78205;SDS011;67480;48.920;12.880;2023-06-19T14:06:57;14.23;;;12.30;;
78205;SDS011;67480;48.920;12.880;2023-06-19T14:09:22;14.13;;;12.18;;
78205;SDS011;67480;48.920;12.880;2023-06-19T14:11:48;13.18;;;11.98;;
78205;SDS011;67480;48.920;12.880;2023-06-19T14:14:13;13.85;;;12.65;;
78205;SDS011;67480;48.920;12.880;2023-06-19T14:16:42;14.10;;;12.60;;
78205;SDS011;67480;48.920;12.880;2023-06-19T14:19:07;14.98;;;13.48;;
78205;SDS011;67480;48.920;12.880;2023-06-19T14:21:33;14.50;;;13.30;;
78205;SDS011;67480;48.920;12.880;2023-06-19T14:23:58;14.63;;;13.25;;
78205;SDS011;67480;48.920;12.880;2023-06-19T14:26:24;15.13;;;13.73;;
78205;SDS011;67480;48.920;12.880;2023-06-19T14:28:49;14.48;;;13.02;;
78205;SDS011;67480;48.920;12.880;2023-06-19T14:31:20;13.55;;;12.25;;
78205;SDS011;67480;48.920;12.880;2023-06-19T14:33:45;13.70;;;12.40;;
78205;SDS011;67480;48.920;12.880;2023-06-19T14:36:11;14.73;;;13.43;;